ADDS METAR Data

Data at: 1827 UTC 20 Jul 2018

METAR for:KRKD (Rockland/Knox Cnty, ME, US)
Text:KRKD 201756Z AUTO 16008KT 10SM CLR 24/16 A3019 RMK AO2 SLP224 T02440161 10244 20189 58003
Temperature: 24.4°C ( 76°F)
Dewpoint: 16.1°C ( 61°F) [RH = 60%]
Pressure (altimeter):30.19 inches Hg (1022.4 mb) [Sea level pressure: 1022.4 mb]
Winds:from the SSE (160 degrees) at 9 MPH (8 knots; 4.1 m/s)
Visibility:10 or more sm (16+ km)
Ceiling:at least 12,000 feet AGL
Clouds:sky clear below 12,000 feet AGL
QC Flag:automated observation with no human augmentation